Time;durP1;ratioP1;P1;durP2;ratioP2;P2;SDS_P1;SDS_P2;PMS_P1;PMS_P2;Temp;Humidity;BMP_temperature;BMP_pressure;BME280_temperature;BME280_humidity;BME280_pressure;Samples;Min_cycle;Max_cycle;Signal;HPM_P1;HPM_P2
2024/01/05 00:01:12;;;;;;;13.98;6.30;;;;;;;5.20;86.28;93599.09;5085169;28;20075;-84
2024/01/05 00:03:37;;;;;;;15.02;6.78;;;;;;;5.19;87.04;93606.25;5085251;28;20092;-84
2024/01/05 00:06:02;;;;;;;16.23;7.30;;;;;;;5.16;87.07;93611.31;5084026;28;20315;-84
2024/01/05 00:08:28;;;;;;;19.58;7.65;;;;;;;5.18;86.87;93606.53;5084192;28;20024;-84
2024/01/05 00:10:53;;;;;;;15.48;6.68;;;;;;;5.19;86.50;93608.09;5084775;28;20048;-84
2024/01/05 00:13:19;;;;;;;14.75;8.00;;;;;;;5.13;86.21;93607.41;5084006;28;20031;-84
2024/01/05 00:15:44;;;;;;;20.25;8.70;;;;;;;5.11;86.38;93606.09;5084801;28;20374;-84
2024/01/05 00:18:10;;;;;;;16.63;6.85;;;;;;;5.09;86.16;93616.97;5083925;28;20223;-84
2024/01/05 00:20:35;;;;;;;14.68;5.68;;;;;;;5.08;86.34;93609.31;5084798;28;20091;-85
2024/01/05 00:23:00;;;;;;;15.10;5.43;;;;;;;5.13;86.46;93622.44;5083957;28;20047;-84
2024/01/05 00:25:26;;;;;;;15.63;6.88;;;;;;;5.12;85.76;93626.16;5083399;28;20088;-84
2024/01/05 00:27:52;;;;;;;16.83;7.32;;;;;;;5.05;85.81;93625.72;5085280;28;20088;-84
2024/01/05 00:30:18;;;;;;;13.32;6.93;;;;;;;4.91;86.58;93621.13;5084552;28;20235;-84
2024/01/05 00:32:44;;;;;;;10.50;5.57;;;;;;;4.98;84.54;93611.00;5082751;28;20051;-84
2024/01/05 00:35:09;;;;;;;10.45;4.60;;;;;;;5.07;84.75;93620.94;5084852;28;20315;-84
2024/01/05 00:37:35;;;;;;;8.10;3.92;;;;;;;5.11;84.83;93622.75;5084881;28;20024;-85
2024/01/05 00:40:01;;;;;;;10.30;4.88;;;;;;;5.17;84.65;93620.81;5083735;28;20319;-84
2024/01/05 00:42:26;;;;;;;14.65;4.82;;;;;;;5.12;84.28;93612.94;5083485;28;20210;-84
2024/01/05 00:44:52;;;;;;;11.38;4.65;;;;;;;5.11;84.58;93625.38;5083146;28;20100;-83
2024/01/05 00:47:17;;;;;;;6.10;2.65;;;;;;;5.18;82.71;93627.66;5084574;28;20024;-83
2024/01/05 00:49:42;;;;;;;9.70;3.40;;;;;;;5.19;80.60;93630.03;5084327;28;20025;-83
2024/01/05 00:52:08;;;;;;;12.00;4.57;;;;;;;5.32;80.42;93630.41;5084298;28;20036;-83
2024/01/05 00:54:33;;;;;;;11.32;4.38;;;;;;;5.28;81.14;93632.81;5084485;28;20040;-83
2024/01/05 00:56:58;;;;;;;10.18;4.70;;;;;;;5.29;81.57;93634.41;5084478;28;20024;-84
2024/01/05 00:59:24;;;;;;;12.02;4.88;;;;;;;5.29;82.10;93634.41;5084494;28;20257;-84
2024/01/05 01:01:50;;;;;;;6.43;3.67;;;;;;;5.29;82.42;93637.03;5084437;28;20272;-84
2024/01/05 01:04:16;;;;;;;9.40;4.38;;;;;;;5.31;82.32;93631.47;5084023;28;20188;-84
2024/01/05 01:06:42;;;;;;;7.30;3.67;;;;;;;5.35;82.24;93625.34;5083992;28;20035;-84
2024/01/05 01:09:07;;;;;;;8.18;3.40;;;;;;;5.37;81.73;93631.13;5083056;28;20023;-83
2024/01/05 01:11:33;;;;;;;4.50;2.35;;;;;;;5.42;81.09;93628.41;5083360;28;20047;-84
2024/01/05 01:13:58;;;;;;;8.07;3.25;;;;;;;5.44;81.08;93622.81;5084141;28;20032;-84
2024/01/05 01:16:23;;;;;;;8.95;3.30;;;;;;;5.48;80.98;93629.13;5083517;28;20017;-84
2024/01/05 01:18:49;;;;;;;11.07;3.78;;;;;;;5.49;81.00;93633.31;5083716;28;20055;-84
2024/01/05 01:21:14;;;;;;;8.15;4.47;;;;;;;5.48;81.53;93630.97;5083753;28;20024;-84
2024/01/05 01:23:40;;;;;;;9.90;3.90;;;;;;;5.46;81.42;93635.75;5083662;28;20020;-85
2024/01/05 01:26:05;;;;;;;7.40;3.50;;;;;;;5.45;81.85;93637.59;5082323;28;20385;-84
2024/01/05 01:28:30;;;;;;;7.65;3.63;;;;;;;5.42;81.53;93660.13;5083911;28;20092;-84
2024/01/05 01:30:57;;;;;;;9.30;3.53;;;;;;;5.38;81.57;93642.47;5083569;28;20323;-84
2024/01/05 01:33:22;;;;;;;6.30;2.97;;;;;;;5.35;81.66;93645.66;5083637;28;20095;-83
2024/01/05 01:35:48;;;;;;;6.55;3.92;;;;;;;5.29;82.18;93636.25;5083415;28;20036;-85
2024/01/05 01:38:13;;;;;;;8.88;4.53;;;;;;;5.28;82.53;93643.38;5083997;28;20047;-83
2024/01/05 01:40:43;;;;;;;8.52;3.78;;;;;;;5.23;82.49;93646.09;5083655;28;20044;-83
2024/01/05 01:43:17;;;;;;;10.20;3.95;;;;;;;5.15;83.41;93652.00;5082810;28;20096;-83
2024/01/05 01:45:42;;;;;;;14.48;4.13;;;;;;;5.18;83.10;93662.03;5083539;28;20020;-83
2024/01/05 01:48:08;;;;;;;8.68;3.67;;;;;;;5.12;83.22;93649.94;5083067;28;20028;-83
2024/01/05 01:50:33;;;;;;;8.98;3.97;;;;;;;5.15;83.51;93652.00;5083316;28;20031;-84
2024/01/05 01:52:59;;;;;;;6.63;3.53;;;;;;;5.12;83.61;93656.00;5083260;28;20031;-83
2024/01/05 01:55:24;;;;;;;8.93;4.35;;;;;;;5.11;83.69;93664.22;5083265;28;20028;-85
2024/01/05 01:57:50;;;;;;;9.45;4.40;;;;;;;5.06;83.96;93657.13;5081784;28;20074;-85
2024/01/05 02:00:16;;;;;;;10.45;3.92;;;;;;;5.02;83.94;93672.75;5083553;28;20020;-85
2024/01/05 02:02:41;;;;;;;10.20;3.50;;;;;;;4.95;84.53;93669.69;5082873;28;20235;-85
2024/01/05 02:05:07;;;;;;;11.13;3.97;;;;;;;5.00;84.34;93674.91;5082793;28;20092;-84
2024/01/05 02:07:32;;;;;;;7.40;4.50;;;;;;;5.02;84.10;93672.75;5083284;28;20196;-84
2024/01/05 02:09:58;;;;;;;8.93;4.43;;;;;;;4.96;83.88;93689.72;5083008;28;20033;-84
2024/01/05 02:12:24;;;;;;;8.15;3.45;;;;;;;4.81;83.92;93682.00;5083185;28;20074;-84
2024/01/05 02:14:49;;;;;;;9.43;3.85;;;;;;;4.77;83.89;93675.69;5082988;28;20112;-83
2024/01/05 02:17:33;;;;;;;10.93;3.80;;;;;;;4.76;84.15;93679.41;5082907;28;20218;-84
2024/01/05 02:19:59;;;;;;;7.00;3.15;;;;;;;4.75;83.98;93672.56;5083146;28;20021;-84
2024/01/05 02:22:31;;;;;;;6.22;3.15;;;;;;;4.70;83.97;93673.41;5083026;28;20208;-83
2024/01/05 02:24:57;;;;;;;8.27;3.28;;;;;;;4.75;83.75;93669.91;5082539;28;20036;-83
2024/01/05 02:27:23;;;;;;;4.35;1.90;;;;;;;4.87;81.64;93669.53;5083090;28;20349;-83
2024/01/05 02:29:49;;;;;;;5.38;2.33;;;;;;;4.99;80.52;93668.06;5097979;28;20036;-81
2024/01/05 02:32:15;;;;;;;8.43;3.53;;;;;;;5.14;80.18;93674.22;5082451;28;20263;-82
2024/01/05 02:34:40;;;;;;;7.10;3.13;;;;;;;5.15;80.42;93668.66;5083000;28;20196;-81
2024/01/05 02:37:06;;;;;;;9.60;2.97;;;;;;;5.19;80.48;93676.78;5082838;28;20035;-84
2024/01/05 02:39:31;;;;;;;4.95;1.70;;;;;;;5.46;76.63;93670.13;5082991;28;20024;-84
2024/01/05 02:41:56;;;;;;;2.03;0.82;;;;;;;5.86;74.23;93670.59;5082697;28;20024;-84
2024/01/05 02:44:22;;;;;;;10.80;2.65;;;;;;;6.01;74.76;93683.66;5082837;28;20099;-84
2024/01/05 02:46:47;;;;;;;7.15;3.42;;;;;;;5.89;76.71;93675.34;5082836;28;20214;-84
2024/01/05 02:49:12;;;;;;;11.43;4.20;;;;;;;5.88;76.97;93679.81;5082425;28;20036;-83
2024/01/05 02:51:39;;;;;;;8.00;3.95;;;;;;;5.81;76.91;93672.25;5082611;28;20028;-82
2024/01/05 02:54:05;;;;;;;8.98;3.05;;;;;;;5.75;76.99;93672.63;5083219;28;20021;-82
2024/01/05 02:56:33;;;;;;;5.00;1.90;;;;;;;5.69;76.73;93687.78;5086579;28;20369;-87
2024/01/05 02:58:59;;;;;;;9.63;4.10;;;;;;;5.54;77.60;93688.00;5087052;28;20028;-86
2024/01/05 03:01:24;;;;;;;16.15;4.72;;;;;;;5.56;77.77;93688.50;5086625;28;20031;-86
2024/01/05 03:03:50;;;;;;;6.70;3.70;;;;;;;5.50;77.88;93685.13;5086939;28;20024;-86
2024/01/05 03:06:16;;;;;;;7.50;3.95;;;;;;;5.48;78.02;93694.41;5086446;28;20021;-87
2024/01/05 03:08:43;;;;;;;11.35;4.47;;;;;;;5.28;78.50;93687.53;5086349;28;20218;-87
2024/01/05 03:11:09;;;;;;;11.75;4.72;;;;;;;5.29;78.76;93692.53;5084757;28;20064;-87
2024/01/05 03:13:35;;;;;;;9.02;4.05;;;;;;;5.26;78.77;93708.94;5086400;28;20028;-87
2024/01/05 03:16:00;;;;;;;8.43;3.92;;;;;;;5.24;78.90;93711.09;5085236;28;20020;-87
2024/01/05 03:18:26;;;;;;;7.13;3.80;;;;;;;5.18;79.00;93702.44;5086427;28;20107;-86
2024/01/05 03:20:51;;;;;;;18.00;5.80;;;;;;;5.19;79.18;93719.88;5086390;28;20021;-86
2024/01/05 03:23:17;;;;;;;11.00;5.25;;;;;;;5.19;78.98;93719.06;5086333;28;20043;-87
2024/01/05 03:25:44;;;;;;;9.43;5.00;;;;;;;5.15;79.70;93726.78;5085015;28;20024;-85
2024/01/05 03:28:10;;;;;;;10.45;4.30;;;;;;;5.13;79.73;93742.13;5085777;28;20086;-85
2024/01/05 03:30:37;;;;;;;9.65;4.13;;;;;;;5.12;79.79;93724.69;5085759;28;20043;-85
2024/01/05 03:33:03;;;;;;;14.63;4.75;;;;;;;4.94;80.45;93738.63;5086150;28;20032;-85
2024/01/05 03:35:29;;;;;;;11.75;4.45;;;;;;;4.86;80.94;93732.09;5085919;28;20020;-85
2024/01/05 03:37:55;;;;;;;7.60;3.80;;;;;;;4.86;81.46;93734.75;5085702;28;20104;-84
2024/01/05 03:40:20;;;;;;;10.23;4.10;;;;;;;4.82;81.91;93742.47;5085686;28;20096;-84
2024/01/05 03:42:46;;;;;;;7.40;4.15;;;;;;;4.83;81.95;93745.88;5085411;28;20214;-85
2024/01/05 03:45:11;;;;;;;8.35;4.35;;;;;;;4.80;82.21;93754.34;5085448;28;20269;-85
2024/01/05 03:47:36;;;;;;;7.60;4.38;;;;;;;4.82;82.26;93752.22;5085387;28;20016;-88
2024/01/05 03:50:02;;;;;;;11.20;4.95;;;;;;;4.84;82.59;93755.38;5084263;28;20082;-83
2024/01/05 03:52:28;;;;;;;8.65;4.45;;;;;;;4.79;82.49;93755.44;5085263;28;20016;-85
2024/01/05 03:54:53;;;;;;;11.80;4.38;;;;;;;4.78;82.56;93756.47;5084212;28;20020;-85
2024/01/05 03:57:21;;;;;;;11.93;5.57;;;;;;;4.79;82.47;93747.50;5085230;28;20021;-85
2024/01/05 03:59:46;;;;;;;10.25;3.90;;;;;;;4.79;82.21;93750.94;5085061;28;20047;-86
2024/01/05 04:02:12;;;;;;;7.95;4.13;;;;;;;4.77;82.42;93758.34;5085307;28;20016;-86
2024/01/05 04:04:37;;;;;;;7.97;4.47;;;;;;;4.77;82.27;93744.34;5085522;28;20028;-86
2024/01/05 04:07:03;;;;;;;6.43;3.20;;;;;;;4.71;82.57;93750.75;5084779;28;20275;-85
2024/01/05 04:09:28;;;;;;;9.32;5.03;;;;;;;4.70;82.27;93765.00;5085245;28;20020;-85
2024/01/05 04:11:54;;;;;;;14.10;4.07;;;;;;;4.74;82.15;93766.03;5083699;28;20302;-85
2024/01/05 04:14:19;;;;;;;6.85;3.80;;;;;;;4.71;81.56;93771.88;5085326;28;20070;-85
2024/01/05 04:16:44;;;;;;;10.75;3.88;;;;;;;4.56;81.53;93781.50;5085607;28;20261;-85
2024/01/05 04:19:10;;;;;;;8.02;3.80;;;;;;;4.38;82.07;93774.25;5085297;28;20009;-85
2024/01/05 04:21:35;;;;;;;7.85;3.97;;;;;;;4.28;82.54;93761.94;5084269;28;20066;-85
2024/01/05 04:24:01;;;;;;;8.40;3.55;;;;;;;4.28;82.62;93758.50;5085541;28;20032;-84
2024/01/05 04:26:27;;;;;;;8.80;3.53;;;;;;;4.24;82.66;93754.84;5084624;28;20084;-85
2024/01/05 04:28:52;;;;;;;10.02;4.25;;;;;;;4.21;82.80;93767.53;5085302;28;20306;-85
2024/01/05 04:31:18;;;;;;;8.77;3.55;;;;;;;4.21;82.62;93759.59;5085345;28;20020;-85
2024/01/05 04:33:43;;;;;;;16.33;4.80;;;;;;;4.07;82.99;93773.66;5084885;28;20024;-82
2024/01/05 04:36:10;;;;;;;11.88;4.95;;;;;;;4.14;83.25;93788.13;5083465;28;20017;-86
2024/01/05 04:38:35;;;;;;;8.52;4.50;;;;;;;4.19;83.02;93787.31;5084641;28;20027;-86
2024/01/05 04:41:01;;;;;;;12.45;4.55;;;;;;;4.19;82.98;93798.66;5084594;28;20378;-86
2024/01/05 04:43:27;;;;;;;12.68;4.75;;;;;;;4.17;83.23;93810.53;5084436;28;20091;-86
2024/01/05 04:45:52;;;;;;;12.27;4.55;;;;;;;4.19;83.63;93801.31;5084522;28;20350;-87
2024/01/05 04:48:18;;;;;;;14.23;5.00;;;;;;;4.16;83.46;93799.19;5084606;28;20029;-84
2024/01/05 04:50:44;;;;;;;12.07;4.28;;;;;;;4.14;83.94;93795.28;5084366;28;20211;-85
2024/01/05 04:53:09;;;;;;;8.73;4.28;;;;;;;4.18;83.78;93797.06;5084200;28;20016;-84
2024/01/05 04:55:34;;;;;;;10.23;4.35;;;;;;;4.21;83.66;93809.75;5082825;28;20295;-84
2024/01/05 04:58:00;;;;;;;12.30;4.45;;;;;;;4.24;83.36;93810.25;5084306;28;20024;-84
2024/01/05 05:00:26;;;;;;;7.95;3.92;;;;;;;4.17;83.22;93815.81;5083259;28;20021;-84
2024/01/05 05:02:51;;;;;;;8.00;4.15;;;;;;;4.14;83.44;93822.44;5084082;28;20036;-86
2024/01/05 05:05:16;;;;;;;6.28;4.07;;;;;;;4.15;83.61;93816.09;5082606;28;20021;-85
2024/01/05 05:07:42;;;;;;;10.68;5.05;;;;;;;4.15;83.62;93817.94;5083884;28;20050;-84
2024/01/05 05:10:08;;;;;;;15.48;4.82;;;;;;;4.11;84.00;93815.06;5083726;28;20111;-83
2024/01/05 05:12:33;;;;;;;13.80;5.70;;;;;;;4.11;84.20;93823.00;5083651;28;20055;-83
2024/01/05 05:14:59;;;;;;;12.93;5.07;;;;;;;4.13;84.27;93826.16;5083821;28;20029;-83
2024/01/05 05:17:24;;;;;;;11.38;4.38;;;;;;;4.12;84.18;93837.75;5082496;28;20092;-83
2024/01/05 05:19:54;;;;;;;11.05;5.15;;;;;;;4.11;84.49;93838.00;5083696;28;20316;-83
2024/01/05 05:22:20;;;;;;;11.55;4.80;;;;;;;4.03;84.81;93844.66;5083295;28;20024;-83
2024/01/05 05:24:45;;;;;;;11.20;5.13;;;;;;;4.09;84.68;93846.22;5082168;28;20076;-84
2024/01/05 05:27:10;;;;;;;13.30;5.20;;;;;;;4.07;84.68;93840.41;5083556;28;20093;-87
2024/01/05 05:29:36;;;;;;;11.25;5.10;;;;;;;4.09;84.64;93846.22;5082952;28;20021;-86
2024/01/05 05:32:01;;;;;;;10.52;5.90;;;;;;;4.09;84.47;93842.75;5082625;28;20048;-87
2024/01/05 05:34:27;;;;;;;15.90;6.05;;;;;;;4.03;84.33;93844.66;5084122;28;20373;-87
2024/01/05 05:36:52;;;;;;;16.17;6.75;;;;;;;4.01;84.69;93833.59;5083791;28;20017;-86
2024/01/05 05:39:18;;;;;;;19.05;8.02;;;;;;;3.98;84.80;93844.69;5083560;28;20032;-86
2024/01/05 05:41:43;;;;;;;12.50;6.38;;;;;;;4.02;84.68;93841.22;5083407;28;20329;-85
2024/01/05 05:44:08;;;;;;;11.60;5.35;;;;;;;4.06;84.83;93845.97;5083436;28;20012;-84
2024/01/05 05:46:34;;;;;;;14.45;6.40;;;;;;;4.03;84.90;93855.22;5082058;28;20099;-85
2024/01/05 05:48:59;;;;;;;14.98;6.35;;;;;;;4.05;85.11;93860.19;5083268;28;20020;-85
2024/01/05 05:51:25;;;;;;;18.90;6.47;;;;;;;4.09;84.77;93877.88;5083069;28;20016;-85
2024/01/05 05:53:50;;;;;;;25.50;9.98;;;;;;;4.11;84.44;93870.47;5082800;28;20023;-87
2024/01/05 05:56:15;;;;;;;31.95;12.02;;;;;;;4.12;84.31;93877.31;5082982;28;20210;-87
2024/01/05 05:58:41;;;;;;;26.35;10.20;;;;;;;4.13;83.99;93867.53;5081983;28;20322;-88
2024/01/05 06:01:06;;;;;;;31.55;11.70;;;;;;;4.12;83.88;93876.53;5083096;28;20040;-87
2024/01/05 06:03:31;;;;;;;21.90;9.63;;;;;;;4.12;83.73;93874.66;5083277;28;20419;-88
2024/01/05 06:05:57;;;;;;;26.67;9.88;;;;;;;4.12;83.50;93874.66;5082817;28;20050;-85
2024/01/05 06:08:23;;;;;;;44.55;17.40;;;;;;;4.07;83.75;93873.91;5082751;28;20214;-87
2024/01/05 06:10:48;;;;;;;38.70;14.70;;;;;;;4.11;83.70;93881.03;5082623;28;20060;-88
2024/01/05 06:13:13;;;;;;;22.95;9.80;;;;;;;4.15;83.78;93881.25;5082867;28;20058;-88
2024/01/05 06:15:39;;;;;;;14.68;6.95;;;;;;;4.07;83.44;93866.81;5082970;28;20096;-88
2024/01/05 06:18:04;;;;;;;16.08;7.28;;;;;;;4.02;83.93;93872.09;5082877;28;20386;-87
2024/01/05 06:20:29;;;;;;;13.15;6.20;;;;;;;4.06;83.97;93880.25;5082921;28;20028;-86
2024/01/05 06:22:55;;;;;;;15.80;6.68;;;;;;;4.09;83.60;93888.41;5082581;28;20036;-86
2024/01/05 06:25:20;;;;;;;16.02;5.82;;;;;;;4.13;83.52;93876.25;5083171;28;20024;-85
2024/01/05 06:27:46;;;;;;;15.93;5.68;;;;;;;4.18;83.25;93892.06;5082814;28;20028;-85
2024/01/05 06:30:11;;;;;;;15.10;5.57;;;;;;;4.18;83.14;93875.44;5082162;28;20324;-86
2024/01/05 06:32:38;;;;;;;16.05;6.40;;;;;;;4.24;83.19;93894.69;5082615;28;20031;-86
2024/01/05 06:35:05;;;;;;;22.40;8.20;;;;;;;4.20;82.97;93895.22;5083283;28;20035;-87
2024/01/05 06:37:30;;;;;;;23.33;8.75;;;;;;;4.21;83.17;93907.34;5082636;28;20025;-86
2024/01/05 06:39:56;;;;;;;26.10;9.75;;;;;;;4.29;83.09;93886.72;5082727;28;20291;-86
2024/01/05 06:42:22;;;;;;;21.50;8.23;;;;;;;4.34;83.14;93905.19;5082709;28;20021;-87
2024/01/05 06:44:48;;;;;;;23.85;8.43;;;;;;;4.36;83.05;93905.69;5081374;28;20036;-84
2024/01/05 06:47:14;;;;;;;21.80;9.23;;;;;;;4.37;83.37;93901.97;5082332;28;20025;-85
2024/01/05 06:49:39;;;;;;;20.88;7.85;;;;;;;4.48;82.83;93906.16;5081000;28;20041;-84
2024/01/05 06:52:05;;;;;;;24.15;9.18;;;;;;;4.54;82.75;93878.66;5082427;28;20090;-84
2024/01/05 06:54:30;;;;;;;20.08;7.78;;;;;;;4.59;82.50;93894.44;5082503;28;20024;-85
2024/01/05 06:56:56;;;;;;;22.70;8.05;;;;;;;4.66;82.47;93899.44;5082224;28;20081;-85
2024/01/05 06:59:24;;;;;;;17.35;7.32;;;;;;;4.70;82.48;93894.38;5082275;28;20362;-85
2024/01/05 07:01:49;;;;;;;16.00;7.43;;;;;;;4.73;82.70;93880.63;5082268;28;20044;-85
2024/01/05 07:04:15;;;;;;;15.43;7.10;;;;;;;4.80;82.48;93889.84;5082301;28;20031;-83
2024/01/05 07:06:41;;;;;;;14.07;6.22;;;;;;;4.81;82.36;93899.31;5082154;28;20230;-81
2024/01/05 07:09:07;;;;;;;18.67;7.25;;;;;;;4.87;82.74;93892.16;5082118;28;20231;-83
2024/01/05 07:11:33;;;;;;;11.98;5.82;;;;;;;4.98;82.24;93891.00;5082066;28;20048;-84
2024/01/05 07:13:58;;;;;;;12.15;4.07;;;;;;;5.09;82.05;93869.78;5097911;28;20030;-84
2024/01/05 07:16:23;;;;;;;10.65;3.85;;;;;;;5.18;81.72;93873.41;5082443;28;20075;-85
2024/01/05 07:18:49;;;;;;;9.10;3.30;;;;;;;5.03;82.12;93883.03;5081997;28;20023;-87
2024/01/05 07:21:16;;;;;;;11.55;2.95;;;;;;;5.14;81.54;93890.88;5082260;28;20033;-87
2024/01/05 07:23:42;;;;;;;6.72;2.47;;;;;;;5.20;81.41;93879.19;5081961;28;20346;-86
2024/01/05 07:26:09;;;;;;;18.30;5.30;;;;;;;5.26;81.01;93890.50;5082306;28;20068;-86
2024/01/05 07:28:35;;;;;;;9.90;2.17;;;;;;;5.29;80.84;93882.81;5082207;28;20032;-85
2024/01/05 07:31:04;;;;;;;8.35;2.50;;;;;;;5.35;80.00;93879.06;5082582;28;20021;-86
2024/01/05 07:33:30;;;;;;;8.85;2.95;;;;;;;5.37;79.98;93891.97;5082233;28;20223;-86
2024/01/05 07:35:56;;;;;;;8.52;3.22;;;;;;;5.48;79.70;93890.03;5082431;28;20079;-86
2024/01/05 07:38:21;;;;;;;16.50;3.25;;;;;;;5.57;79.62;93891.78;5082232;28;20028;-85
2024/01/05 07:40:46;;;;;;;10.27;2.55;;;;;;;5.61;80.11;93890.13;5081204;28;20069;-85
2024/01/05 07:43:13;;;;;;;10.35;2.67;;;;;;;5.68;79.14;93903.06;5084207;28;20024;-85
2024/01/05 07:45:38;;;;;;;7.90;3.00;;;;;;;5.75;78.75;93890.25;5085535;28;20047;-84
2024/01/05 07:48:04;;;;;;;10.48;3.08;;;;;;;5.83;78.43;93894.94;5085549;28;20104;-84
2024/01/05 07:50:31;;;;;;;9.75;2.50;;;;;;;5.90;78.09;93891.16;5085474;28;20016;-84
2024/01/05 07:52:56;;;;;;;9.57;3.20;;;;;;;5.96;78.02;93895.34;5085660;28;20326;-84
2024/01/05 07:55:22;;;;;;;9.15;3.50;;;;;;;6.04;77.89;93894.72;5085217;28;20056;-84
2024/01/05 07:57:47;;;;;;;7.65;2.95;;;;;;;6.12;77.91;93906.53;5084038;28;20027;-85
2024/01/05 08:00:13;;;;;;;9.35;2.97;;;;;;;6.13;77.26;93885.09;5084039;28;20091;-85
2024/01/05 08:02:39;;;;;;;8.45;2.95;;;;;;;6.21;77.49;93907.50;5085185;28;20261;-84
2024/01/05 08:05:05;;;;;;;10.20;3.20;;;;;;;6.30;77.62;93897.06;5085168;28;20023;-84
2024/01/05 08:07:31;;;;;;;8.07;2.45;;;;;;;6.41;77.05;93903.78;5085016;28;20020;-84
2024/01/05 08:09:56;;;;;;;13.05;3.20;;;;;;;6.51;76.21;93901.00;5085029;28;20059;-84
2024/01/05 08:12:22;;;;;;;10.25;3.33;;;;;;;6.61;75.08;93895.59;5084927;28;20328;-84
2024/01/05 08:14:47;;;;;;;12.45;4.00;;;;;;;6.74;74.39;93909.19;5085229;28;20016;-85
2024/01/05 08:17:13;;;;;;;9.10;2.53;;;;;;;6.83;74.03;93902.94;5083432;28;20074;-83
2024/01/05 08:19:38;;;;;;;6.68;2.10;;;;;;;6.90;73.45;93907.88;5084869;28;20019;-84
2024/01/05 08:22:04;;;;;;;8.95;2.72;;;;;;;7.02;72.58;93910.06;5084725;28;20016;-84
2024/01/05 08:24:29;;;;;;;7.20;2.65;;;;;;;7.10;72.34;93908.63;5085203;28;20020;-86
2024/01/05 08:26:55;;;;;;;12.32;3.65;;;;;;;7.13;72.77;93908.06;5084527;28;20043;-84
2024/01/05 08:29:21;;;;;;;21.13;3.35;;;;;;;7.20;72.48;93921.72;5084224;28;20087;-84
2024/01/05 08:31:48;;;;;;;12.98;3.20;;;;;;;7.03;72.71;93923.03;5083274;28;20016;-83
2024/01/05 08:34:14;;;;;;;15.65;3.08;;;;;;;7.05;72.95;93929.91;5084320;28;20218;-85
2024/01/05 08:36:39;;;;;;;11.25;3.15;;;;;;;7.22;71.56;93923.03;5084512;28;20326;-84
2024/01/05 08:39:05;;;;;;;10.02;3.42;;;;;;;7.32;71.90;93924.69;5084231;28;20365;-84
2024/01/05 08:41:31;;;;;;;11.57;2.83;;;;;;;7.43;71.73;93915.50;5084445;28;20017;-75
2024/01/05 08:43:56;;;;;;;7.55;2.28;;;;;;;7.57;71.50;93930.66;5084224;28;20016;-79
2024/01/05 08:46:22;;;;;;;10.80;2.10;;;;;;;7.68;70.57;93918.78;5082906;28;20061;-78
2024/01/05 08:48:48;;;;;;;8.02;2.80;;;;;;;7.78;70.00;93915.94;5083874;28;20222;-78
2024/01/05 08:51:14;;;;;;;11.32;2.45;;;;;;;7.87;70.10;93915.28;5083923;28;20027;-76
2024/01/05 08:53:40;;;;;;;7.95;2.58;;;;;;;7.96;70.34;93900.25;5083500;28;20234;-76
2024/01/05 08:56:07;;;;;;;6.90;2.22;;;;;;;8.05;70.17;93909.06;5083819;28;20044;-77
2024/01/05 08:58:33;;;;;;;13.50;2.83;;;;;;;8.13;69.46;93910.25;5084003;28;20276;-76
2024/01/05 09:00:59;;;;;;;6.70;2.63;;;;;;;8.02;70.16;93899.06;5083985;28;20028;-76
2024/01/05 09:03:24;;;;;;;10.40;2.47;;;;;;;8.08;70.36;93897.06;5083773;28;20024;-76
2024/01/05 09:05:50;;;;;;;19.02;2.70;;;;;;;8.13;69.65;93897.00;5083836;28;20069;-77
2024/01/05 09:08:16;;;;;;;12.07;3.38;;;;;;;8.22;68.91;93903.16;5083648;28;20020;-77
2024/01/05 09:10:41;;;;;;;11.25;2.50;;;;;;;8.30;69.06;93905.13;5083385;28;20104;-78
2024/01/05 09:13:07;;;;;;;9.93;2.97;;;;;;;8.38;69.03;93893.00;5083250;28;20017;-79
2024/01/05 09:15:32;;;;;;;10.90;2.50;;;;;;;8.46;67.02;93900.31;5082008;28;20047;-78
2024/01/05 09:17:57;;;;;;;9.25;2.70;;;;;;;8.52;66.73;93888.50;5082134;28;20241;-77
2024/01/05 09:20:23;;;;;;;13.07;3.45;;;;;;;8.49;66.98;93898.91;5081722;28;20263;-77
2024/01/05 09:22:50;;;;;;;13.27;2.92;;;;;;;8.45;67.42;93896.09;5082137;28;20355;-77
2024/01/05 09:25:16;;;;;;;5.65;2.55;;;;;;;8.48;66.96;93900.78;5081323;28;20252;-77
2024/01/05 09:27:42;;;;;;;11.45;2.80;;;;;;;8.54;66.85;93893.50;5080894;28;20039;-77
2024/01/05 09:30:07;;;;;;;13.55;3.50;;;;;;;8.58;66.91;93895.25;5080037;28;20021;-77
2024/01/05 09:32:33;;;;;;;6.32;2.88;;;;;;;8.61;66.77;93897.34;5081487;28;20091;-77
2024/01/05 09:34:58;;;;;;;12.38;3.67;;;;;;;8.70;67.26;93904.59;5081505;28;20016;-77
2024/01/05 09:37:24;;;;;;;8.20;3.25;;;;;;;8.75;66.21;93902.63;5081694;28;20012;-77
2024/01/05 09:39:49;;;;;;;11.23;2.83;;;;;;;8.80;65.93;93902.50;5082077;28;20012;-77
2024/01/05 09:42:15;;;;;;;14.55;3.03;;;;;;;8.84;66.43;93913.31;5082157;28;20273;-77
2024/01/05 09:44:42;;;;;;;13.68;2.80;;;;;;;8.86;66.22;93902.41;5083044;28;20227;-77
2024/01/05 09:47:08;;;;;;;10.38;3.40;;;;;;;8.87;66.62;93906.59;5083003;28;20032;-77
2024/01/05 09:49:39;;;;;;;7.90;2.92;;;;;;;8.97;67.04;93907.16;5082678;28;20062;-77
2024/01/05 09:52:05;;;;;;;10.05;2.70;;;;;;;9.09;66.97;93898.66;5082829;28;20031;-77
2024/01/05 09:54:31;;;;;;;11.07;3.60;;;;;;;9.14;66.89;93911.84;5082989;28;20032;-77
2024/01/05 09:56:57;;;;;;;15.13;4.13;;;;;;;9.25;66.69;93907.03;5081763;28;20016;-77
2024/01/05 09:59:24;;;;;;;13.40;3.45;;;;;;;9.34;66.25;93905.25;5082571;28;20219;-77
2024/01/05 10:01:50;;;;;;;9.07;4.00;;;;;;;9.42;65.74;93904.50;5082699;28;20131;-77
2024/01/05 10:04:18;;;;;;;10.98;3.90;;;;;;;9.45;65.55;93892.47;5081967;28;20114;-77
2024/01/05 10:06:43;;;;;;;9.48;3.60;;;;;;;9.59;65.40;93892.38;5082652;28;20024;-77
2024/01/05 10:09:09;;;;;;;6.55;3.25;;;;;;;9.69;65.03;93893.97;5082387;28;20048;-77
2024/01/05 10:11:40;;;;;;;13.50;3.67;;;;;;;9.75;65.18;93877.59;5082556;28;20346;-77
2024/01/05 10:14:06;;;;;;;14.98;4.07;;;;;;;9.60;63.69;93881.41;5082651;28;20070;-77
2024/01/05 10:16:39;;;;;;;10.00;3.10;;;;;;;9.69;63.90;93878.81;5082720;28;20071;-77
2024/01/05 10:19:14;;;;;;;;;;;;;;;9.79;64.30;93883.88;5083101;28;20024;-77
2024/01/05 10:21:44;;;;;;;11.68;3.78;;;;;;;9.78;64.35;93876.19;5082328;28;19946;-77
2024/01/05 10:24:28;;;;;;;10.43;3.65;;;;;;;9.91;64.45;93877.97;5082418;28;20020;-78
2024/01/05 10:27:04;;;;;;;10.48;3.53;;;;;;;10.07;64.08;93872.22;5082258;28;20032;-78
2024/01/05 10:29:30;;;;;;;11.95;3.75;;;;;;;10.18;64.23;93862.84;5082554;28;20095;-77
2024/01/05 10:32:10;;;;;;;12.45;3.75;;;;;;;10.29;64.08;93861.47;5082498;28;20028;-77
2024/01/05 10:34:35;;;;;;;21.02;4.70;;;;;;;10.36;62.94;93858.34;5082574;28;20044;-77
2024/01/05 10:37:05;;;;;;;19.95;5.72;;;;;;;10.40;62.63;93860.09;5082546;28;20070;-77
2024/01/05 10:39:30;;;;;;;15.98;6.57;;;;;;;10.47;62.68;93864.19;5082226;28;20055;-77
2024/01/05 10:42:27;;;;;;;23.60;7.50;;;;;;;10.60;62.80;93864.06;5082319;28;20256;-77
2024/01/05 10:44:57;;;;;;;24.02;8.27;;;;;;;10.65;62.17;93849.78;5082204;28;20023;-78
2024/01/05 10:47:26;;;;;;;14.68;7.38;;;;;;;10.78;62.00;93854.16;5082297;28;20021;-77
2024/01/05 10:49:55;;;;;;;18.55;8.85;;;;;;;10.91;61.49;93844.44;5082144;28;20036;-77
2024/01/05 10:52:22;;;;;;;21.48;9.40;;;;;;;10.96;61.39;93838.94;5082149;28;20092;-77
2024/01/05 10:54:50;;;;;;;14.65;7.55;;;;;;;11.11;60.93;93850.22;5082195;28;20022;-77
2024/01/05 10:57:16;;;;;;;17.25;6.95;;;;;;;11.24;60.18;93843.94;5082022;28;20024;-77
2024/01/05 10:59:44;;;;;;;14.00;5.97;;;;;;;11.36;59.45;93844.06;5082167;28;20069;-77
2024/01/05 11:02:34;;;;;;;13.82;5.90;;;;;;;11.45;59.27;93844.03;5082091;28;20028;-77
2024/01/05 11:05:09;;;;;;;13.40;4.88;;;;;;;11.56;58.40;93823.09;5082318;28;20027;-77
2024/01/05 11:07:36;;;;;;;16.85;4.75;;;;;;;11.63;56.44;93826.09;5082091;28;20265;-77
2024/01/05 11:10:08;;;;;;;21.25;4.40;;;;;;;11.64;56.19;93827.63;5082285;28;20021;-77
2024/01/05 11:13:07;;;;;;;9.55;2.72;;;;;;;11.71;53.88;93824.50;5081906;28;20348;-77
2024/01/05 11:15:52;;;;;;;12.63;3.15;;;;;;;11.74;53.99;93805.91;5083687;28;20044;-77
2024/01/05 11:18:39;;;;;;;17.15;3.80;;;;;;;11.82;53.88;93807.78;5085889;28;20048;-75
2024/01/05 11:21:11;;;;;;;19.15;4.35;;;;;;;11.95;54.72;93811.38;5085647;28;20021;-77
2024/01/05 11:23:40;;;;;;;17.30;3.85;;;;;;;12.10;54.35;93812.69;5085785;28;20091;-77
2024/01/05 11:26:05;;;;;;;18.42;4.75;;;;;;;12.22;54.64;93798.63;5085600;28;20291;-77
2024/01/05 11:28:35;;;;;;;14.77;3.75;;;;;;;12.36;53.91;93801.84;5085740;28;20025;-77
2024/01/05 11:31:01;;;;;;;10.20;3.95;;;;;;;12.51;53.88;93803.16;5085727;28;20028;-77
2024/01/05 11:33:49;;;;;;;10.98;4.22;;;;;;;12.63;53.92;93811.22;5085552;28;20036;-78